createdAt,value
2023-02-26T00:00:15.303Z,1.85
2023-02-26T00:03:21.554Z,1.84
2023-02-26T00:06:29.740Z,1.87
2023-02-26T00:09:36.300Z,1.87
2023-02-26T00:12:43.864Z,1.85
2023-02-26T00:15:52.585Z,1.87
2023-02-26T00:19:00.405Z,1.86
2023-02-26T00:22:08.020Z,1.86
2023-02-26T00:25:14.834Z,1.83
2023-02-26T00:28:22.191Z,1.82
2023-02-26T00:31:29.241Z,1.83
2023-02-26T00:34:36.470Z,1.83
2023-02-26T00:38:03.170Z,1.85
2023-02-26T00:41:11.242Z,1.85
2023-02-26T00:44:18.705Z,1.86
2023-02-26T00:47:32.595Z,1.87
2023-02-26T00:50:44.585Z,1.89
2023-02-26T00:54:00.368Z,1.89
2023-02-26T00:57:06.900Z,1.89
2023-02-26T01:00:16.634Z,1.89
2023-02-26T01:03:23.809Z,1.90
2023-02-26T01:06:33.979Z,1.89
2023-02-26T01:09:41.318Z,1.88
2023-02-26T01:12:48.825Z,1.86
2023-02-26T01:16:04.436Z,1.85
2023-02-26T01:19:19.623Z,1.83
2023-02-26T01:22:31.083Z,1.82
2023-02-26T01:25:43.105Z,1.82
2023-02-26T01:28:50.542Z,1.80
2023-02-26T01:32:03.628Z,1.79
2023-02-26T01:35:18.035Z,1.78
2023-02-26T01:38:32.312Z,1.77
2023-02-26T01:41:44.502Z,1.77
2023-02-26T01:45:01.044Z,1.78
2023-02-26T01:48:13.071Z,1.80
2023-02-26T01:51:19.724Z,1.79
2023-02-26T01:54:27.246Z,1.76
2023-02-26T01:57:33.513Z,1.77
2023-02-26T02:00:39.854Z,1.78
2023-02-26T02:03:44.780Z,1.75
2023-02-26T02:06:51.465Z,1.74
2023-02-26T02:09:57.597Z,1.76
2023-02-26T02:13:11.478Z,1.76
2023-02-26T02:16:28.977Z,1.78
2023-02-26T02:19:59.227Z,1.77
2023-02-26T02:23:12.601Z,1.72
2023-02-26T02:26:51.798Z,1.72
2023-02-26T02:30:38.409Z,1.72
2023-02-26T02:33:51.242Z,1.70
2023-02-26T02:37:01.070Z,1.70
2023-02-26T02:40:14.175Z,1.67
2023-02-26T02:43:22.525Z,1.69
2023-02-26T02:46:31.639Z,1.68
2023-02-26T02:49:44.988Z,1.68
2023-02-26T02:52:55.803Z,1.66
2023-02-26T02:56:08.885Z,1.66
2023-02-26T02:59:22.131Z,1.64
2023-02-26T03:02:35.309Z,1.61
2023-02-26T03:05:41.634Z,1.62
2023-02-26T03:08:47.979Z,1.63
2023-02-26T03:11:54.144Z,1.59
2023-02-26T03:15:00.950Z,1.57
2023-02-26T03:18:17.324Z,1.59
2023-02-26T03:21:33.140Z,1.59
2023-02-26T03:24:47.326Z,1.59
2023-02-26T03:28:00.584Z,1.57
2023-02-26T03:31:13.547Z,1.56
2023-02-26T03:34:27.497Z,1.57
2023-02-26T03:37:39.978Z,1.56
2023-02-26T03:40:51.173Z,1.53
2023-02-26T03:44:01.516Z,1.53
2023-02-26T03:47:13.121Z,1.56
2023-02-26T03:50:26.670Z,1.59
2023-02-26T03:53:40.950Z,1.58
2023-02-26T03:56:49.227Z,1.57
2023-02-26T03:59:56.008Z,1.53
2023-02-26T04:03:09.261Z,1.53
2023-02-26T04:06:16.811Z,1.52
2023-02-26T04:09:23.734Z,1.52
2023-02-26T04:12:30.815Z,1.56
2023-02-26T04:15:37.482Z,1.57
2023-02-26T04:18:44.250Z,1.60
2023-02-26T04:21:50.837Z,1.63
2023-02-26T04:24:57.061Z,1.62
2023-02-26T04:28:03.312Z,1.60
2023-02-26T04:31:10.410Z,1.60
2023-02-26T04:34:16.817Z,1.58
2023-02-26T04:37:21.294Z,1.58
2023-02-26T04:40:27.737Z,1.60
2023-02-26T04:43:34.415Z,1.56
2023-02-26T04:46:40.627Z,1.51
2023-02-26T04:49:46.738Z,1.43
2023-02-26T04:52:53.010Z,1.29
2023-02-26T04:55:57.522Z,1.16
2023-02-26T04:59:03.734Z,1.00
2023-02-26T05:02:10.042Z,0.91
2023-02-26T05:05:14.516Z,0.82
2023-02-26T05:08:20.613Z,0.79
2023-02-26T05:11:26.867Z,0.75
2023-02-26T05:14:31.407Z,0.69
2023-02-26T05:17:38.529Z,0.65
2023-02-26T05:20:44.702Z,0.61
2023-02-26T05:23:51.170Z,0.56
2023-02-26T05:26:57.436Z,0.52
2023-02-26T05:30:03.882Z,0.47
2023-02-26T05:33:10.139Z,0.44
2023-02-26T05:36:16.421Z,0.42
2023-02-26T05:39:20.932Z,0.42
2023-02-26T05:42:27.164Z,0.46
2023-02-26T05:45:33.410Z,0.48
2023-02-26T05:48:39.650Z,0.53
2023-02-26T05:51:45.916Z,0.58
2023-02-26T05:54:50.530Z,0.63
2023-02-26T05:57:56.667Z,0.65
2023-02-26T06:01:03.140Z,0.66
2023-02-26T06:04:09.637Z,0.67
2023-02-26T06:07:16.116Z,0.70
2023-02-26T06:10:22.607Z,0.72
2023-02-26T06:13:28.860Z,0.74
2023-02-26T06:16:35.978Z,0.74
2023-02-26T06:19:42.293Z,0.75
2023-02-26T06:22:46.772Z,0.75
2023-02-26T06:25:53.452Z,0.74
2023-02-26T06:28:59.716Z,0.76
2023-02-26T06:32:06.268Z,0.75
2023-02-26T06:35:13.441Z,0.76
2023-02-26T06:38:20.138Z,0.78
2023-02-26T06:41:26.501Z,0.80
2023-02-26T06:44:30.977Z,0.82
2023-02-26T06:47:37.235Z,0.80
2023-02-26T06:50:43.420Z,0.79
2023-02-26T06:53:49.582Z,0.81
2023-02-26T06:56:57.810Z,0.84
2023-02-26T07:00:05.560Z,0.89
2023-02-26T07:03:14.070Z,0.88
2023-02-26T07:06:38.719Z,0.84
2023-02-26T07:09:46.114Z,0.76
2023-02-26T07:12:52.704Z,0.75
2023-02-26T07:15:58.972Z,0.78
2023-02-26T07:19:05.222Z,0.74
2023-02-26T07:22:09.768Z,0.71
2023-02-26T07:25:16.584Z,0.75
2023-02-26T07:28:23.421Z,0.76
2023-02-26T07:31:29.725Z,0.77
2023-02-26T07:34:34.248Z,0.77
2023-02-26T07:37:40.564Z,0.76
2023-02-26T07:40:45.169Z,0.73
2023-02-26T07:43:51.488Z,0.74
2023-02-26T07:46:55.944Z,0.74
2023-02-26T07:50:02.322Z,0.71
2023-02-26T07:53:06.977Z,0.71
2023-02-26T07:56:13.233Z,0.73
2023-02-26T07:59:19.541Z,0.77
2023-02-26T08:02:24.702Z,0.77
2023-02-26T08:05:31.105Z,0.76
2023-02-26T08:08:37.476Z,0.82
2023-02-26T08:11:43.390Z,0.93
2023-02-26T08:14:48.122Z,1.06
2023-02-26T08:17:56.900Z,1.22
2023-02-26T08:21:03.105Z,1.36
2023-02-26T08:24:09.793Z,1.51
2023-02-26T08:27:16.099Z,1.53
2023-02-26T08:30:22.715Z,1.43
2023-02-26T08:33:29.111Z,1.35
2023-02-26T08:36:34.263Z,1.33
2023-02-26T08:39:40.871Z,1.33
2023-02-26T08:42:47.220Z,1.37
2023-02-26T08:45:53.160Z,1.39
2023-02-26T08:48:57.674Z,1.39
2023-02-26T08:52:04.161Z,1.44
2023-02-26T08:55:12.015Z,1.57
2023-02-26T08:58:18.397Z,1.73
2023-02-26T09:01:22.976Z,1.85
2023-02-26T09:04:31.180Z,1.81
2023-02-26T09:07:37.690Z,1.40
2023-02-26T09:10:44.084Z,1.17
2023-02-26T09:13:50.367Z,1.06
2023-02-26T09:16:56.658Z,0.94
2023-02-26T09:20:01.171Z,0.85
2023-02-26T09:23:07.450Z,0.77
2023-02-26T09:26:11.987Z,0.68
2023-02-26T09:29:18.231Z,0.62
2023-02-26T09:32:26.424Z,0.56
2023-02-26T09:35:32.703Z,0.53
2023-02-26T09:38:39.012Z,0.55
2023-02-26T09:41:45.907Z,0.61
2023-02-26T09:44:54.199Z,0.61
2023-02-26T09:48:03.109Z,0.58
2023-02-26T09:51:14.016Z,0.64
2023-02-26T09:54:24.339Z,0.66
2023-02-26T09:57:34.040Z,0.74
2023-02-26T10:00:48.890Z,0.91
2023-02-26T10:04:04.731Z,1.16
2023-02-26T10:07:22.262Z,1.43
2023-02-26T10:10:36.686Z,1.54
2023-02-26T10:13:57.286Z,1.44
2023-02-26T10:17:08.849Z,1.41
2023-02-26T10:20:21.411Z,1.25
2023-02-26T10:23:37.748Z,1.05
2023-02-26T10:26:48.970Z,0.93
2023-02-26T10:30:01.801Z,0.92
2023-02-26T10:33:20.170Z,0.97
2023-02-26T10:36:30.868Z,1.07
2023-02-26T10:39:45.743Z,1.19
2023-02-26T10:42:55.366Z,1.29
2023-02-26T10:46:11.467Z,1.25
2023-02-26T10:49:30.664Z,1.17
2023-02-26T10:52:39.046Z,1.13
2023-02-26T10:55:48.383Z,1.07
2023-02-26T10:58:55.483Z,1.05
2023-02-26T11:02:02.332Z,1.08
2023-02-26T11:05:16.781Z,1.11
2023-02-26T11:08:27.715Z,1.15
2023-02-26T11:11:47.332Z,1.23
2023-02-26T11:14:54.105Z,1.30
2023-02-26T11:18:02.741Z,1.42
2023-02-26T11:21:10.280Z,1.56
2023-02-26T11:24:20.947Z,1.65
2023-02-26T11:27:31.933Z,1.73
2023-02-26T11:30:40.085Z,1.80
2023-02-26T11:33:50.739Z,1.86
2023-02-26T11:37:00.180Z,1.95
2023-02-26T11:40:16.064Z,2.09
2023-02-26T11:43:24.539Z,2.26
2023-02-26T11:46:31.192Z,2.54
2023-02-26T11:49:42.862Z,2.88
2023-02-26T11:52:55.798Z,3.18
2023-02-26T11:56:05.119Z,3.40
2023-02-26T11:59:21.019Z,3.55
2023-02-26T12:02:32.712Z,3.68
2023-02-26T12:05:39.743Z,3.40
2023-02-26T12:08:46.039Z,2.94
2023-02-26T12:12:00.941Z,2.55
2023-02-26T12:15:21.888Z,2.23
2023-02-26T12:18:38.087Z,2.08
2023-02-26T12:21:53.530Z,1.91
2023-02-26T12:25:17.752Z,1.74
2023-02-26T12:29:07.968Z,1.62
2023-02-26T12:32:26.941Z,1.52
2023-02-26T12:35:56.171Z,1.42
2023-02-26T12:39:16.275Z,1.32
2023-02-26T12:42:34.183Z,1.25
2023-02-26T12:45:54.216Z,1.15
2023-02-26T12:49:17.408Z,1.04
2023-02-26T12:52:42.108Z,1.00
2023-02-26T12:55:58.588Z,0.96
2023-02-26T12:59:18.113Z,0.93
2023-02-26T13:02:57.924Z,0.96
2023-02-26T13:06:27.291Z,0.97
2023-02-26T13:09:42.547Z,1.00
2023-02-26T13:13:12.473Z,1.02
2023-02-26T13:16:38.640Z,0.96
2023-02-26T13:19:49.363Z,0.93
2023-02-26T13:23:01.062Z,0.88
2023-02-26T13:26:11.021Z,0.85
2023-02-26T13:29:22.417Z,0.83
2023-02-26T13:32:30.204Z,0.84
2023-02-26T13:35:38.788Z,0.89
2023-02-26T13:39:11.422Z,0.93
2023-02-26T13:42:28.882Z,0.96
2023-02-26T13:45:47.701Z,0.95
2023-02-26T13:49:00.659Z,0.93
2023-02-26T13:52:06.990Z,0.98
2023-02-26T13:55:36.591Z,1.05
2023-02-26T13:58:44.203Z,0.87
2023-02-26T14:01:55.302Z,0.63
2023-02-26T14:05:02.559Z,0.51
2023-02-26T14:08:27.658Z,0.50
2023-02-26T14:12:01.057Z,0.48
2023-02-26T14:15:41.672Z,0.41
2023-02-26T14:18:54.850Z,0.36
2023-02-26T14:22:15.983Z,0.34
2023-02-26T14:25:33.151Z,0.33
2023-02-26T14:28:47.338Z,0.34
2023-02-26T14:32:16.558Z,0.40
2023-02-26T14:35:26.691Z,0.46
2023-02-26T14:38:37.368Z,0.45
2023-02-26T14:41:44.638Z,0.45
2023-02-26T14:44:53.942Z,0.48
2023-02-26T14:48:02.658Z,0.49
2023-02-26T14:51:21.896Z,0.48
2023-02-26T14:54:50.187Z,0.39
2023-02-26T14:58:06.256Z,0.34
2023-02-26T15:01:22.079Z,0.31
2023-02-26T15:04:51.141Z,0.28
2023-02-26T15:08:14.428Z,0.29
2023-02-26T15:11:35.553Z,0.27
2023-02-26T15:15:11.310Z,0.31
2023-02-26T15:18:22.798Z,0.31
2023-02-26T15:21:40.390Z,0.31
2023-02-26T15:24:47.434Z,0.33
2023-02-26T15:27:54.240Z,0.27
2023-02-26T15:31:02.306Z,0.20
2023-02-26T15:34:12.698Z,0.16
2023-02-26T15:37:28.344Z,0.13
2023-02-26T15:40:37.427Z,0.11
2023-02-26T15:43:47.812Z,0.11
2023-02-26T15:46:59.429Z,0.08
2023-02-26T15:50:06.805Z,0.05
2023-02-26T15:53:19.904Z,0.03
2023-02-26T15:56:29.639Z,-0.02
2023-02-26T15:59:41.825Z,-0.05
2023-02-26T16:02:50.621Z,-0.04
2023-02-26T16:05:59.078Z,-0.02
2023-02-26T16:09:07.689Z,-0.03
2023-02-26T16:12:17.805Z,-0.05
2023-02-26T16:15:31.131Z,-0.04
2023-02-26T16:18:38.061Z,-0.03
2023-02-26T16:21:45.050Z,-0.05
2023-02-26T16:24:58.969Z,-0.07
2023-02-26T16:28:08.278Z,-0.10
2023-02-26T16:31:21.146Z,-0.14
2023-02-26T16:34:41.618Z,-0.20
2023-02-26T16:37:50.165Z,-0.26
2023-02-26T16:41:03.906Z,-0.29
2023-02-26T16:44:40.809Z,-0.32
2023-02-26T16:47:48.693Z,-0.36
2023-02-26T16:51:01.324Z,-0.37
2023-02-26T16:54:10.622Z,-0.38
2023-02-26T16:57:21.683Z,-0.40
2023-02-26T17:00:31.294Z,-0.41
2023-02-26T17:03:40.730Z,-0.42
2023-02-26T17:06:48.280Z,-0.44
2023-02-26T17:09:58.531Z,-0.44
2023-02-26T17:13:16.510Z,-0.44
2023-02-26T17:16:23.358Z,-0.44
2023-02-26T17:19:29.745Z,-0.45
2023-02-26T17:22:36.154Z,-0.49
2023-02-26T17:25:45.478Z,-0.50
2023-02-26T17:28:51.999Z,-0.52
2023-02-26T17:31:58.365Z,-0.54
2023-02-26T17:35:03.252Z,-0.58
2023-02-26T17:38:13.405Z,-0.61
2023-02-26T17:41:20.974Z,-0.60
2023-02-26T17:44:27.225Z,-0.59
2023-02-26T17:47:40.043Z,-0.58
2023-02-26T17:50:54.480Z,-0.57
2023-02-26T17:54:04.688Z,-0.57
2023-02-26T17:57:22.196Z,-0.57
2023-02-26T18:00:31.639Z,-0.58
2023-02-26T18:03:42.123Z,-0.58
2023-02-26T18:06:52.624Z,-0.60
2023-02-26T18:10:04.663Z,-0.62
2023-02-26T18:13:24.188Z,-0.65
2023-02-26T18:16:37.302Z,-0.64
2023-02-26T18:19:53.423Z,-0.63
2023-02-26T18:23:04.983Z,-0.62
2023-02-26T18:26:18.901Z,-0.60
2023-02-26T18:29:27.401Z,-0.61
2023-02-26T18:32:36.818Z,-0.61
2023-02-26T18:35:46.051Z,-0.60
2023-02-26T18:38:52.260Z,-0.61
2023-02-26T18:41:58.500Z,-0.62
2023-02-26T18:45:05.149Z,-0.61
2023-02-26T18:48:13.220Z,-0.57
2023-02-26T18:51:19.560Z,-0.54
2023-02-26T18:54:24.209Z,-0.52
2023-02-26T18:57:30.774Z,-0.51
2023-02-26T19:00:37.103Z,-0.52
2023-02-26T19:03:41.672Z,-0.52
2023-02-26T19:06:48.005Z,-0.53
2023-02-26T19:09:52.672Z,-0.56
2023-02-26T19:12:59.153Z,-0.53
2023-02-26T19:16:05.738Z,-0.48
2023-02-26T19:19:12.954Z,-0.49
2023-02-26T19:22:19.310Z,-0.56
2023-02-26T19:25:27.108Z,-0.62
2023-02-26T19:28:33.614Z,-0.60
2023-02-26T19:31:40.454Z,-0.55
2023-02-26T19:34:46.952Z,-0.54
2023-02-26T19:37:51.467Z,-0.56
2023-02-26T19:40:57.927Z,-0.56
2023-02-26T19:44:04.235Z,-0.54
2023-02-26T19:47:08.772Z,-0.53
2023-02-26T19:50:16.879Z,-0.49
2023-02-26T19:53:23.215Z,-0.43
2023-02-26T19:56:27.739Z,-0.39
2023-02-26T19:59:34.202Z,-0.35
2023-02-26T20:02:40.751Z,-0.33
2023-02-26T20:05:48.033Z,-0.31
2023-02-26T20:08:54.462Z,-0.32
2023-02-26T20:12:01.372Z,-0.34
2023-02-26T20:15:09.499Z,-0.40
2023-02-26T20:18:16.052Z,-0.45
2023-02-26T20:21:23.497Z,-0.51
2023-02-26T20:24:30.911Z,-0.54
2023-02-26T20:27:37.722Z,-0.56
2023-02-26T20:30:43.983Z,-0.56
2023-02-26T20:33:50.143Z,-0.57
2023-02-26T20:36:56.846Z,-0.58
2023-02-26T20:40:05.354Z,-0.57
2023-02-26T20:43:12.438Z,-0.56
2023-02-26T20:46:18.837Z,-0.58
2023-02-26T20:49:25.709Z,-0.59
2023-02-26T20:52:32.013Z,-0.58
2023-02-26T20:55:36.725Z,-0.58
2023-02-26T20:58:42.754Z,-0.59
2023-02-26T21:01:51.389Z,-0.56
2023-02-26T21:04:57.590Z,-0.54
2023-02-26T21:08:04.317Z,-0.53
2023-02-26T21:11:10.598Z,-0.54
2023-02-26T21:14:16.839Z,-0.56
2023-02-26T21:17:21.770Z,-0.56
2023-02-26T21:20:28.008Z,-0.58
2023-02-26T21:23:34.176Z,-0.59
2023-02-26T21:26:40.461Z,-0.59
2023-02-26T21:29:45.260Z,-0.59
2023-02-26T21:32:51.929Z,-0.58
2023-02-26T21:35:58.471Z,-0.59
2023-02-26T21:39:05.741Z,-0.60
2023-02-26T21:42:14.140Z,-0.60
2023-02-26T21:45:20.591Z,-0.60
2023-02-26T21:48:26.776Z,-0.57
2023-02-26T21:51:32.977Z,-0.57
2023-02-26T21:54:37.647Z,-0.56
2023-02-26T21:57:44.330Z,-0.55
2023-02-26T22:00:50.709Z,-0.56
2023-02-26T22:03:55.290Z,-0.56
2023-02-26T22:07:01.549Z,-0.57
2023-02-26T22:10:10.041Z,-0.55
2023-02-26T22:13:16.313Z,-0.53
2023-02-26T22:16:22.972Z,-0.53
2023-02-26T22:19:29.252Z,-0.57
2023-02-26T22:22:35.460Z,-0.57
2023-02-26T22:25:41.680Z,-0.57
2023-02-26T22:28:47.969Z,-0.57
2023-02-26T22:31:54.168Z,-0.58
2023-02-26T22:35:00.563Z,-0.59
2023-02-26T22:38:05.088Z,-0.59
2023-02-26T22:41:11.392Z,-0.58
2023-02-26T22:44:15.866Z,-0.57
2023-02-26T22:47:22.022Z,-0.56
2023-02-26T22:50:28.168Z,-0.56
2023-02-26T22:53:34.379Z,-0.54
2023-02-26T22:56:40.552Z,-0.51
2023-02-26T22:59:46.681Z,-0.47
2023-02-26T23:02:53.508Z,-0.44
2023-02-26T23:06:00.198Z,-0.40
2023-02-26T23:09:07.080Z,-0.37
2023-02-26T23:12:14.107Z,-0.34
2023-02-26T23:15:20.416Z,-0.31
2023-02-26T23:18:24.983Z,-0.30
2023-02-26T23:21:31.991Z,-0.30
2023-02-26T23:24:38.273Z,-0.30
2023-02-26T23:27:43.264Z,-0.31
2023-02-26T23:30:49.612Z,-0.33
2023-02-26T23:33:54.215Z,-0.36
2023-02-26T23:37:00.453Z,-0.40
2023-02-26T23:40:08.144Z,-0.43
2023-02-26T23:43:14.286Z,-0.48
2023-02-26T23:46:20.563Z,-0.52
2023-02-26T23:49:25.104Z,-0.54
2023-02-26T23:52:31.417Z,-0.56
2023-02-26T23:55:35.909Z,-0.57
2023-02-26T23:58:42.196Z,-0.56
